Strona główna
METAR-TAF:

METAR-TAF

Lotnisko :

Harding County Airport

Buffalo, Dakota Południowa, Stany Zjednoczone

Szerokość geograficzna: 45-36-16N, Długość geograficzna: 103-32-47W, wysokość: 915 m

Aktualna obserwacja pogody

Raport powstał 18 minut temu, godzina 00:56 UTC
Wiatr 15 kt od południowy wschód
Temperatura 27°C
Wilgotność 58%
Ciśnienie 1019 hPa

METAR: K2WX 240056Z AUTO 13015KT 27/18 A3008 RMK AO1 SLP166 T02720178

czas: 19:14 (01:14 UTC)


TAF: brakujący

Obserwacja i prognoza pogody dla ponad 4000 lotnisk (raport METAR i TAF).

Dostępne stacje oznaczono żółtymi i czerwonymi punktami na mapie.

Najedź kursorem aby zobaczyć nazwę stacji.

Kliknij aby zobaczyć obserwacje i prognozy pogody.

Aby zmienić mapę: kliknij na zielony przycisk z czarnym krzyżykiem, aby powiększyć; na zielony przycisk z myślnikiem, aby pomniejszyć; na zielone strzałki, aby przejść do map sąsiednich.


METAR-TAF: